»·PEaware :: SWA241 CYYZ-KBOS

SWA241 :: CYYZ-KBOS

FLIGHT INFORMATION

Flight Status: Arrived
Operator:
Southwest Airlines
More flights by this operator :: More flights under this callsign
Pilot: Drew L. (13237)
Aircraft: BOEING 737-200
(B732)
More flights by this aircraft type
Origin: CYYZ Toronto/Pearson Intl
Canada
Destination: KBOS Logan Intl
United States
More flights between these airports :: More routes between these airports
Route: YYZ BUF V2 ALB GDM4
File this flight plan on PilotEdge
Remarks:
Altitude:
(Current/Filed)
25,000ft
Speed:
(Current/Filed)
450kts
Departed: 14-Mar-17 02:57 PM
Arrived: 14-Mar-17 04:05 PM
Distance/Time
Traveled:
385nm/1:08
Distance/Time
To Go:
Arrived

Flight Plot

Page will automatically refresh every two minutes.

Flight plan parsing failed; only flown route is shown


Map Options




Map Legend


Flown Route
Filed Route
Departure Airport
Arrival Airport
Navaid (VOR, NDB)
Fix

Horizontal Profiles

Position Reports

Time Latitude Longitude Heading Altitude Ground
Speed
14-Mar-17 14:45 43.675719 -79.626013 225 568ft 0kts
14-Mar-17 14:46 43.675719 -79.626013 225 568ft 0kts
14-Mar-17 14:47 43.675597 -79.626183 225 568ft 1kts
14-Mar-17 14:48 43.675411 -79.626443 225 567ft 0kts
14-Mar-17 14:49 43.675411 -79.626443 225 567ft 0kts
14-Mar-17 14:50 43.675408 -79.626448 225 567ft 0kts
14-Mar-17 14:51 43.674768 -79.625659 111 566ft 8kts
14-Mar-17 14:52 43.674479 -79.622484 136 565ft 12kts
14-Mar-17 14:53 43.670907 -79.617851 135 558ft 22kts
14-Mar-17 14:54 43.666804 -79.611657 72 544ft 8kts
14-Mar-17 14:55 43.666870 -79.611389 70 544ft 0kts
14-Mar-17 14:56 43.667891 -79.607884 60 545ft 15kts
14-Mar-17 14:57 43.662024 -79.622340 63 534ft 28kts
14-Mar-17 14:58 43.681811 -79.585049 52 1603ft 167kts
14-Mar-17 14:59 43.709050 -79.531529 37 3104ft 231kts
14-Mar-17 15:00 43.771411 -79.510328 33 6612ft 266kts
14-Mar-17 15:01 43.779748 -79.432364 120 9049ft 309kts
14-Mar-17 15:02 43.700977 -79.388785 177 11447ft 340kts
14-Mar-17 15:03 43.612455 -79.343460 157 14816ft 358kts
14-Mar-17 15:04 43.525895 -79.267429 150 17324ft 381kts
14-Mar-17 15:05 43.438950 -79.179403 149 19702ft 397kts
14-Mar-17 15:06 43.350394 -79.086700 149 21839ft 410kts
14-Mar-17 15:07 43.259413 -78.990952 150 23827ft 421kts
14-Mar-17 15:08 43.163628 -78.890536 149 24752ft 458kts
14-Mar-17 15:09 43.057433 -78.779526 149 24995ft 509kts
14-Mar-17 15:10 42.955130 -78.653943 140 25254ft 505kts
14-Mar-17 15:11 42.917988 -78.479872 74 24932ft 492kts
14-Mar-17 15:12 42.962247 -78.314178 70 24904ft 484kts
14-Mar-17 15:13 43.006931 -78.133115 70 24898ft 524kts
14-Mar-17 15:14 43.054102 -77.940052 70 24988ft 544kts
14-Mar-17 15:15 43.101272 -77.745129 72 25003ft 539kts
14-Mar-17 15:16 43.127707 -77.546492 92 24918ft 532kts
14-Mar-17 15:17 43.126839 -77.346789 92 24889ft 527kts
14-Mar-17 15:18 43.125939 -77.151772 92 24871ft 522kts
14-Mar-17 15:19 43.132175 -76.953200 88 24777ft 521kts
14-Mar-17 15:20 43.140332 -76.756567 88 24778ft 517kts
14-Mar-17 15:21 43.148130 -76.561721 87 24780ft 515kts
14-Mar-17 15:22 43.183152 -76.374127 90 24755ft 513kts
14-Mar-17 15:23 43.158876 -76.190947 104 24744ft 505kts
14-Mar-17 15:24 43.132597 -76.004977 104 24747ft 502kts
14-Mar-17 15:25 43.108770 -75.817386 103 24750ft 501kts
14-Mar-17 15:26 43.085807 -75.630921 103 24699ft 500kts
14-Mar-17 15:27 43.062554 -75.444430 103 24700ft 499kts
14-Mar-17 15:28 43.041076 -75.266441 105 24683ft 484kts
14-Mar-17 15:29 43.013035 -75.092518 111 24698ft 461kts
14-Mar-17 15:30 42.977896 -74.925445 111 24693ft 456kts
14-Mar-17 15:31 42.942886 -74.757538 111 24699ft 465kts
14-Mar-17 15:32 42.907346 -74.587595 110 24700ft 473kts
14-Mar-17 15:33 42.873505 -74.423381 110 24582ft 484kts
14-Mar-17 15:34 42.837622 -74.247826 111 24483ft 492kts
14-Mar-17 15:35 42.817088 -74.146793 111 24472ft 493kts
14-Mar-17 15:36 42.817088 -74.146793 111 24472ft 493kts
14-Mar-17 15:37 42.817088 -74.146793 111 24472ft 493kts
14-Mar-17 15:38 42.817088 -74.146793 111 24472ft 493kts
14-Mar-17 15:39 42.817088 -74.146793 111 24472ft 493kts
14-Mar-17 15:40 42.800870 -74.067170 111 24554ft 497kts
14-Mar-17 15:41 42.763320 -73.884674 113 24538ft 503kts
14-Mar-17 15:42 42.734303 -73.697796 103 24536ft 508kts
14-Mar-17 15:43 42.713765 -73.509084 103 24541ft 503kts
14-Mar-17 15:44 42.694166 -73.336708 104 24538ft 499kts
14-Mar-17 15:45 42.675016 -73.177087 104 24532ft 492kts
14-Mar-17 15:46 42.649079 -72.996727 109 24530ft 482kts
14-Mar-17 15:47 42.642602 -72.822633 101 24519ft 444kts
14-Mar-17 15:48 42.629237 -72.664247 95 24049ft 420kts
14-Mar-17 15:49 42.640304 -72.504423 104 22195ft 422kts
14-Mar-17 15:50 42.600052 -72.373808 119 20798ft 406kts
14-Mar-17 15:51 42.567917 -72.229048 108 19284ft 412kts
14-Mar-17 15:52 42.548006 -72.078445 106 17848ft 411kts
14-Mar-17 15:53 42.528943 -71.926529 109 16451ft 405kts
14-Mar-17 15:54 42.503172 -71.778787 110 15149ft 403kts
14-Mar-17 15:55 42.464056 -71.640994 124 13717ft 388kts
14-Mar-17 15:56 42.418135 -71.513290 124 11958ft 383kts
14-Mar-17 15:57 42.372776 -71.386085 123 9922ft 366kts
14-Mar-17 15:58 42.331956 -71.267875 124 7099ft 339kts
14-Mar-17 15:59 42.289636 -71.169300 149 4638ft 293kts
14-Mar-17 16:00 42.240359 -71.120156 189 2746ft 232kts
14-Mar-17 16:01 42.236356 -71.177612 331 1214ft 248kts
14-Mar-17 16:02 42.288914 -71.144101 34 1227ft 263kts
14-Mar-17 16:03 42.331949 -71.092714 34 1224ft 199kts
14-Mar-17 16:04 42.305498 -71.055194 12 786ft 182kts
14-Mar-17 16:05 42.334655 -71.023894 45 577ft 196kts
14-Mar-17 16:06 42.303869 -71.064132 26 482ft 0kts
14-Mar-17 16:07 42.310865 -71.056824 259 53ft 51kts

Navigation Log

Ident Type
Flight plan parsing failed, navigation log unavailable